createdAt,value
2023-03-06T00:01:03.607Z,5.03
2023-03-06T00:03:30.357Z,4.98
2023-03-06T00:05:57.624Z,4.91
2023-03-06T00:08:24.859Z,4.85
2023-03-06T00:10:51.544Z,4.78
2023-03-06T00:13:19.938Z,4.75
2023-03-06T00:15:46.924Z,4.76
2023-03-06T00:18:13.663Z,4.74
2023-03-06T00:20:40.871Z,4.71
2023-03-06T00:23:08.432Z,4.54
2023-03-06T00:25:35.143Z,4.45
2023-03-06T00:28:01.801Z,4.33
2023-03-06T00:30:28.489Z,4.27
2023-03-06T00:32:55.161Z,4.35
2023-03-06T00:35:21.897Z,4.39
2023-03-06T00:37:48.579Z,4.48
2023-03-06T00:40:16.975Z,4.53
2023-03-06T00:42:43.636Z,4.60
2023-03-06T00:45:10.442Z,4.68
2023-03-06T00:47:37.149Z,4.73
2023-03-06T00:50:04.640Z,4.76
2023-03-06T00:52:31.347Z,4.75
2023-03-06T00:54:58.015Z,4.75
2023-03-06T00:57:24.650Z,4.77
2023-03-06T00:59:51.287Z,4.75
2023-03-06T01:02:18.025Z,4.76
2023-03-06T01:04:44.685Z,4.78
2023-03-06T01:07:11.349Z,4.83
2023-03-06T01:09:37.981Z,4.66
2023-03-06T01:12:04.667Z,4.72
2023-03-06T01:14:31.307Z,4.67
2023-03-06T01:16:57.973Z,4.74
2023-03-06T01:19:24.606Z,4.69
2023-03-06T01:21:51.276Z,4.67
2023-03-06T01:24:18.029Z,4.65
2023-03-06T01:26:44.652Z,4.64
2023-03-06T01:29:12.446Z,4.70
2023-03-06T01:31:39.141Z,4.74
2023-03-06T01:34:05.853Z,4.69
2023-03-06T01:36:32.512Z,4.72
2023-03-06T01:38:59.163Z,4.63
2023-03-06T01:41:25.785Z,4.56
2023-03-06T01:43:52.434Z,4.47
2023-03-06T01:46:42.438Z,4.41
2023-03-06T01:49:11.733Z,4.35
2023-03-06T01:51:56.404Z,4.29
2023-03-06T01:54:55.636Z,4.22
2023-03-06T01:57:26.312Z,4.20
2023-03-06T01:59:58.785Z,4.20
2023-03-06T02:02:25.446Z,4.23
2023-03-06T02:04:52.114Z,4.21
2023-03-06T02:07:19.389Z,4.19
2023-03-06T02:09:46.038Z,4.11
2023-03-06T02:12:14.247Z,4.08
2023-03-06T02:14:40.898Z,4.07
2023-03-06T02:17:07.770Z,4.08
2023-03-06T02:19:54.508Z,4.08
2023-03-06T02:22:21.280Z,4.07
2023-03-06T02:25:02.500Z,4.10
2023-03-06T02:27:29.175Z,4.12
2023-03-06T02:29:55.810Z,4.04
2023-03-06T02:32:22.486Z,3.89
2023-03-06T02:34:54.553Z,3.89
2023-03-06T02:37:21.327Z,3.95
2023-03-06T02:39:50.052Z,3.96
2023-03-06T02:42:24.869Z,4.00
2023-03-06T02:44:52.342Z,4.02
2023-03-06T02:47:18.997Z,4.01
2023-03-06T02:49:45.657Z,3.97
2023-03-06T02:52:12.297Z,3.95
2023-03-06T02:54:38.946Z,3.93
2023-03-06T02:57:05.569Z,3.88
2023-03-06T02:59:32.204Z,3.89
2023-03-06T03:01:58.842Z,3.75
2023-03-06T03:04:25.547Z,3.80
2023-03-06T03:06:52.220Z,3.87
2023-03-06T03:09:18.879Z,3.89
2023-03-06T03:11:45.562Z,3.92
2023-03-06T03:14:12.191Z,4.01
2023-03-06T03:16:39.269Z,3.99
2023-03-06T03:19:06.004Z,3.98
2023-03-06T03:21:32.679Z,3.98
2023-03-06T03:23:59.330Z,3.97
2023-03-06T03:26:26.010Z,3.94
2023-03-06T03:28:52.639Z,3.93
2023-03-06T03:31:19.362Z,3.89
2023-03-06T03:33:46.058Z,3.91
2023-03-06T03:36:12.712Z,3.93
2023-03-06T03:38:39.344Z,3.97
2023-03-06T03:41:05.994Z,4.03
2023-03-06T03:43:32.630Z,4.02
2023-03-06T03:45:59.282Z,3.96
2023-03-06T03:48:25.932Z,3.90
2023-03-06T03:50:52.593Z,3.85
2023-03-06T03:53:19.239Z,3.82
2023-03-06T03:55:48.608Z,3.99
2023-03-06T03:58:15.320Z,3.93
2023-03-06T04:00:41.973Z,3.87
2023-03-06T04:03:08.598Z,3.83
2023-03-06T04:05:35.241Z,3.71
2023-03-06T04:08:01.874Z,3.65
2023-03-06T04:10:28.525Z,3.78
2023-03-06T04:12:55.165Z,3.72
2023-03-06T04:15:21.835Z,3.77
2023-03-06T04:17:48.492Z,3.78
2023-03-06T04:20:15.131Z,3.80
2023-03-06T04:22:41.761Z,3.74
2023-03-06T04:25:08.799Z,3.72
2023-03-06T04:27:35.444Z,3.76
2023-03-06T04:30:02.110Z,3.80
2023-03-06T04:32:28.761Z,3.87
2023-03-06T04:34:55.500Z,3.91
2023-03-06T04:37:23.716Z,3.96
2023-03-06T04:39:50.399Z,3.95
2023-03-06T04:42:17.046Z,3.99
2023-03-06T04:44:43.850Z,4.08
2023-03-06T04:47:10.546Z,4.10
2023-03-06T04:49:37.190Z,4.13
2023-03-06T04:52:03.910Z,4.16
2023-03-06T04:54:30.573Z,4.14
2023-03-06T04:56:57.255Z,4.14
2023-03-06T04:59:23.971Z,4.14
2023-03-06T05:01:50.720Z,4.10
2023-03-06T05:04:17.367Z,4.08
2023-03-06T05:06:44.060Z,4.07
2023-03-06T05:09:10.707Z,4.12
2023-03-06T05:11:37.355Z,3.94
2023-03-06T05:14:03.997Z,3.93
2023-03-06T05:16:30.759Z,3.85
2023-03-06T05:18:57.476Z,3.80
2023-03-06T05:21:24.115Z,3.82
2023-03-06T05:23:50.762Z,3.84
2023-03-06T05:26:17.391Z,3.73
2023-03-06T05:28:44.061Z,3.68
2023-03-06T05:31:10.704Z,3.72
2023-03-06T05:33:37.360Z,3.70
2023-03-06T05:36:04.287Z,3.67
2023-03-06T05:38:31.649Z,3.61
2023-03-06T05:40:58.536Z,3.55
2023-03-06T05:43:25.241Z,3.58
2023-03-06T05:45:51.953Z,3.57
2023-03-06T05:48:18.662Z,3.60
2023-03-06T05:50:45.348Z,3.56
2023-03-06T05:53:11.980Z,3.52
2023-03-06T05:55:41.640Z,3.45
2023-03-06T05:58:08.316Z,3.47
2023-03-06T06:00:35.530Z,3.71
2023-03-06T06:03:02.543Z,3.68
2023-03-06T06:05:29.207Z,3.48
2023-03-06T06:07:55.903Z,3.43
2023-03-06T06:10:22.555Z,3.47
2023-03-06T06:12:49.217Z,3.52
2023-03-06T06:15:16.064Z,3.62
2023-03-06T06:17:42.839Z,3.65
2023-03-06T06:20:09.865Z,3.70
2023-03-06T06:22:37.232Z,3.73
2023-03-06T06:25:04.950Z,3.81
2023-03-06T06:27:31.858Z,3.83
2023-03-06T06:29:58.539Z,3.86
2023-03-06T06:32:25.269Z,3.87
2023-03-06T06:34:52.034Z,3.87
2023-03-06T06:37:18.691Z,3.90
2023-03-06T06:39:45.368Z,3.90
2023-03-06T06:42:29.322Z,3.88
2023-03-06T06:44:58.263Z,3.94
2023-03-06T06:47:25.907Z,3.96
2023-03-06T06:49:53.469Z,3.97
2023-03-06T06:52:20.282Z,4.12
2023-03-06T06:54:46.937Z,4.08
2023-03-06T06:57:13.618Z,4.11
2023-03-06T06:59:40.276Z,4.14
2023-03-06T07:02:06.944Z,4.25
2023-03-06T07:04:33.698Z,4.32
2023-03-06T07:07:00.377Z,4.31
2023-03-06T07:09:27.060Z,4.18
2023-03-06T07:11:53.714Z,4.26
2023-03-06T07:14:20.384Z,4.23
2023-03-06T07:16:47.136Z,4.33
2023-03-06T07:19:13.790Z,4.48
2023-03-06T07:21:40.504Z,4.53
2023-03-06T07:24:07.285Z,4.65
2023-03-06T07:26:34.898Z,4.80
2023-03-06T07:29:02.180Z,4.95
2023-03-06T07:31:29.045Z,5.00
2023-03-06T07:33:55.744Z,5.07
2023-03-06T07:36:23.039Z,5.16
2023-03-06T07:38:49.914Z,5.25
2023-03-06T07:41:16.708Z,5.25
2023-03-06T07:43:44.038Z,5.13
2023-03-06T07:46:10.903Z,5.18
2023-03-06T07:48:37.710Z,5.30
2023-03-06T07:51:08.984Z,5.28
2023-03-06T07:53:35.686Z,5.24
2023-03-06T07:56:04.119Z,5.29
2023-03-06T07:58:30.753Z,5.28
2023-03-06T08:00:57.512Z,5.30
2023-03-06T08:03:24.192Z,5.27
2023-03-06T08:05:50.909Z,5.36
2023-03-06T08:08:17.567Z,5.45
2023-03-06T08:10:47.826Z,5.58
2023-03-06T08:13:14.500Z,5.54
2023-03-06T08:15:41.204Z,5.72
2023-03-06T08:18:07.906Z,5.78
2023-03-06T08:20:34.576Z,5.96
2023-03-06T08:23:01.269Z,6.00
2023-03-06T08:25:27.908Z,6.20
2023-03-06T08:27:54.581Z,6.20
2023-03-06T08:30:21.286Z,6.41
2023-03-06T08:32:47.936Z,6.56
2023-03-06T08:35:14.817Z,6.86
2023-03-06T08:37:41.512Z,7.09
2023-03-06T08:40:08.849Z,7.30
2023-03-06T08:42:35.538Z,7.55
2023-03-06T08:45:02.230Z,7.68
2023-03-06T08:47:30.010Z,7.98
2023-03-06T08:49:57.774Z,8.18
2023-03-06T08:52:25.502Z,8.56
2023-03-06T08:54:52.234Z,8.86
2023-03-06T08:57:18.961Z,10.29
2023-03-06T08:59:45.613Z,11.48
2023-03-06T09:02:12.657Z,12.50
2023-03-06T09:04:39.401Z,13.23
2023-03-06T09:07:06.052Z,13.96
2023-03-06T09:09:32.896Z,14.72
2023-03-06T09:11:59.560Z,15.30
2023-03-06T09:14:26.269Z,15.71
2023-03-06T09:16:53.090Z,15.74
2023-03-06T09:19:19.821Z,15.79
2023-03-06T09:21:46.519Z,16.13
2023-03-06T09:24:19.534Z,16.05
2023-03-06T09:26:47.675Z,16.57
2023-03-06T09:29:15.510Z,16.14
2023-03-06T09:31:42.172Z,16.22
2023-03-06T09:34:08.848Z,15.99
2023-03-06T09:36:49.253Z,15.56
2023-03-06T09:39:20.331Z,15.25
2023-03-06T09:41:47.020Z,15.11
2023-03-06T09:44:15.839Z,14.60
2023-03-06T09:46:54.534Z,14.08
2023-03-06T09:49:33.369Z,13.62
2023-03-06T09:52:05.031Z,13.19
2023-03-06T09:54:43.800Z,12.99
2023-03-06T09:57:17.502Z,12.96
2023-03-06T09:59:45.318Z,12.99
2023-03-06T10:02:14.949Z,12.86
2023-03-06T10:04:43.151Z,12.79
2023-03-06T10:07:20.451Z,12.84
2023-03-06T10:10:07.416Z,12.80
2023-03-06T10:12:43.451Z,12.91
2023-03-06T10:15:18.456Z,12.98
2023-03-06T10:17:45.178Z,13.05
2023-03-06T10:20:23.355Z,13.03
2023-03-06T10:23:12.104Z,12.95
2023-03-06T10:25:46.497Z,12.94
2023-03-06T10:28:18.290Z,12.81
2023-03-06T10:31:01.571Z,12.71
2023-03-06T10:33:43.469Z,12.47
2023-03-06T10:36:15.635Z,12.43
2023-03-06T10:38:42.344Z,12.50
2023-03-06T10:41:11.832Z,12.56
2023-03-06T10:43:43.126Z,12.56
2023-03-06T10:46:11.696Z,12.71
2023-03-06T10:48:40.980Z,12.85
2023-03-06T10:51:18.608Z,12.97
2023-03-06T10:53:49.156Z,13.00
2023-03-06T10:56:26.427Z,12.89
2023-03-06T10:59:18.266Z,12.67
2023-03-06T11:01:48.921Z,12.69
2023-03-06T11:04:31.427Z,12.64
2023-03-06T11:07:14.692Z,12.72
2023-03-06T11:09:56.520Z,12.70
2023-03-06T11:12:30.472Z,12.66
2023-03-06T11:15:23.907Z,12.68
2023-03-06T11:18:04.875Z,12.74
2023-03-06T11:20:51.068Z,12.61
2023-03-06T11:23:29.470Z,12.57
2023-03-06T11:26:17.333Z,12.48
2023-03-06T11:28:48.731Z,12.54
2023-03-06T11:31:26.149Z,12.55
2023-03-06T11:33:56.769Z,12.62
2023-03-06T11:36:26.412Z,12.69
2023-03-06T11:38:53.636Z,12.66
2023-03-06T11:41:42.598Z,12.64
2023-03-06T11:44:20.119Z,12.63
2023-03-06T11:46:49.599Z,12.66
2023-03-06T11:49:24.469Z,12.55
2023-03-06T11:51:54.210Z,12.51
2023-03-06T11:54:21.791Z,12.57
2023-03-06T11:57:27.559Z,12.63
2023-03-06T12:00:18.260Z,12.63
2023-03-06T12:03:07.226Z,12.56
2023-03-06T12:05:46.702Z,12.36
2023-03-06T12:08:17.102Z,12.30
2023-03-06T12:10:57.815Z,12.20
2023-03-06T12:13:31.484Z,12.18
2023-03-06T12:16:12.378Z,11.98
2023-03-06T12:18:51.096Z,11.94
2023-03-06T12:21:43.083Z,11.90
2023-03-06T12:24:25.154Z,11.71
2023-03-06T12:27:20.955Z,11.69
2023-03-06T12:30:10.349Z,11.83
2023-03-06T12:32:46.471Z,11.88
2023-03-06T12:35:22.503Z,11.96
2023-03-06T12:37:55.220Z,11.90
2023-03-06T12:40:24.334Z,11.94
2023-03-06T12:43:22.996Z,11.80
2023-03-06T12:45:50.042Z,11.87
2023-03-06T12:48:19.203Z,11.75
2023-03-06T12:50:45.921Z,11.81
2023-03-06T12:53:30.070Z,11.75
2023-03-06T12:55:57.645Z,11.77
2023-03-06T12:58:30.243Z,11.77
2023-03-06T13:01:04.142Z,11.70
2023-03-06T13:04:01.125Z,11.71
2023-03-06T13:06:52.592Z,11.72
2023-03-06T13:09:22.691Z,11.65
2023-03-06T13:12:08.039Z,11.65
2023-03-06T13:14:54.606Z,11.50
2023-03-06T13:17:24.667Z,11.56
2023-03-06T13:20:35.288Z,11.51
2023-03-06T13:23:34.197Z,11.55
2023-03-06T13:26:03.961Z,11.61
2023-03-06T13:28:46.367Z,11.59
2023-03-06T13:31:28.193Z,11.68
2023-03-06T13:34:33.839Z,11.78
2023-03-06T13:37:19.117Z,11.70
2023-03-06T13:39:57.859Z,11.73
2023-03-06T13:42:37.572Z,11.76
2023-03-06T13:45:23.506Z,11.87
2023-03-06T13:50:42.653Z,11.84
2023-03-06T13:53:16.694Z,11.84
2023-03-06T13:56:05.086Z,11.90
2023-03-06T13:58:44.843Z,11.92
2023-03-06T14:01:17.149Z,11.90
2023-03-06T14:04:05.660Z,11.83
2023-03-06T14:06:35.316Z,11.89
2023-03-06T14:09:05.531Z,12.02
2023-03-06T14:11:32.338Z,12.14
2023-03-06T14:13:59.042Z,12.27
2023-03-06T14:16:29.194Z,12.38
2023-03-06T14:18:59.303Z,12.44
2023-03-06T14:21:39.146Z,12.40
2023-03-06T14:24:05.908Z,12.43
2023-03-06T14:26:34.357Z,12.38
2023-03-06T14:29:01.962Z,12.32
2023-03-06T14:31:31.006Z,12.17
2023-03-06T14:34:05.063Z,12.16
2023-03-06T14:36:32.383Z,11.98
2023-03-06T14:39:03.419Z,11.99
2023-03-06T14:41:31.535Z,12.04
2023-03-06T14:44:14.347Z,11.93
2023-03-06T14:46:41.054Z,11.93
2023-03-06T14:49:07.994Z,12.01
2023-03-06T14:51:41.763Z,12.01
2023-03-06T14:54:13.069Z,11.96
2023-03-06T14:56:40.561Z,11.95
2023-03-06T14:59:08.714Z,12.01
2023-03-06T15:01:37.452Z,12.13
2023-03-06T15:04:14.855Z,12.07
2023-03-06T15:06:42.146Z,12.11
2023-03-06T15:09:22.027Z,12.04
2023-03-06T15:12:00.445Z,12.01
2023-03-06T15:14:37.009Z,11.97
2023-03-06T15:17:21.706Z,12.00
2023-03-06T15:19:52.958Z,12.05
2023-03-06T15:22:27.406Z,12.03
2023-03-06T15:24:54.382Z,12.03
2023-03-06T15:27:25.999Z,12.00
2023-03-06T15:29:52.659Z,11.91
2023-03-06T15:32:25.297Z,11.88
2023-03-06T15:35:22.808Z,11.83
2023-03-06T15:37:52.289Z,11.77
2023-03-06T15:40:19.929Z,11.74
2023-03-06T15:42:46.668Z,11.75
2023-03-06T15:45:15.503Z,11.74
2023-03-06T15:47:43.093Z,11.74
2023-03-06T15:50:26.303Z,11.73
2023-03-06T15:52:53.160Z,11.73
2023-03-06T15:55:24.509Z,11.68
2023-03-06T15:57:56.755Z,11.62
2023-03-06T16:00:28.477Z,11.64
2023-03-06T16:02:56.106Z,11.60
2023-03-06T16:05:22.779Z,11.57
2023-03-06T16:07:49.521Z,11.55
2023-03-06T16:10:17.787Z,11.49
2023-03-06T16:12:48.386Z,11.46
2023-03-06T16:15:17.853Z,11.43
2023-03-06T16:17:44.581Z,11.39
2023-03-06T16:20:20.510Z,11.27
2023-03-06T16:22:47.722Z,11.25
2023-03-06T16:25:15.569Z,11.25
2023-03-06T16:27:43.548Z,11.24
2023-03-06T16:30:17.572Z,11.23
2023-03-06T16:32:44.281Z,11.15
2023-03-06T16:35:11.724Z,11.08
2023-03-06T16:37:39.409Z,11.00
2023-03-06T16:40:13.031Z,10.97
2023-03-06T16:42:39.724Z,10.88
2023-03-06T16:45:06.918Z,10.83
2023-03-06T16:47:33.628Z,10.77
2023-03-06T16:50:00.899Z,10.71
2023-03-06T16:52:27.875Z,10.75
2023-03-06T16:54:54.560Z,10.63
2023-03-06T16:57:21.243Z,10.55
2023-03-06T16:59:47.927Z,10.47
2023-03-06T17:02:14.684Z,10.40
2023-03-06T17:04:42.307Z,10.33
2023-03-06T17:07:09.890Z,10.28
2023-03-06T17:09:37.336Z,10.24
2023-03-06T17:12:04.179Z,10.19
2023-03-06T17:14:33.694Z,10.14
2023-03-06T17:17:01.313Z,10.30
2023-03-06T17:19:29.867Z,10.17
2023-03-06T17:21:58.485Z,10.05
2023-03-06T17:24:26.083Z,10.00
2023-03-06T17:26:53.670Z,9.87
2023-03-06T17:29:20.748Z,9.98
2023-03-06T17:31:47.450Z,9.96
2023-03-06T17:34:14.474Z,9.80
2023-03-06T17:36:42.062Z,9.73
2023-03-06T17:39:09.687Z,9.63
2023-03-06T17:41:36.676Z,9.50
2023-03-06T17:44:03.429Z,9.45
2023-03-06T17:46:30.582Z,9.41
2023-03-06T17:48:57.787Z,9.35
2023-03-06T17:51:26.657Z,9.30
2023-03-06T17:53:55.239Z,9.25
2023-03-06T17:56:23.865Z,9.24
2023-03-06T17:58:54.469Z,9.16
2023-03-06T18:01:23.148Z,9.19
2023-03-06T18:03:52.356Z,9.20
2023-03-06T18:06:19.609Z,9.12
2023-03-06T18:08:46.519Z,9.06
2023-03-06T18:11:13.453Z,9.02
2023-03-06T18:13:41.460Z,9.00
2023-03-06T18:16:09.755Z,9.13
2023-03-06T18:18:38.328Z,9.07
2023-03-06T18:21:10.846Z,9.05
2023-03-06T18:23:39.567Z,9.04
2023-03-06T18:31:41.744Z,8.93
2023-03-06T18:34:16.396Z,8.84
2023-03-06T18:36:46.118Z,8.23
2023-03-06T18:39:13.719Z,8.14
2023-03-06T18:41:41.318Z,8.17
2023-03-06T18:44:11.281Z,8.28
2023-03-06T18:46:40.384Z,8.28
2023-03-06T18:49:07.390Z,8.25
2023-03-06T18:51:35.108Z,8.22
2023-03-06T18:54:05.088Z,8.24
2023-03-06T18:56:33.250Z,8.26
2023-03-06T18:59:06.916Z,8.25
2023-03-06T19:01:35.488Z,8.31
2023-03-06T19:04:03.206Z,8.22
2023-03-06T19:06:30.694Z,8.24
2023-03-06T19:08:59.945Z,8.19
2023-03-06T19:11:26.651Z,8.14
2023-03-06T19:13:55.502Z,8.12
2023-03-06T19:16:24.169Z,8.19
2023-03-06T19:18:51.722Z,8.24
2023-03-06T19:21:20.423Z,8.13
2023-03-06T19:23:49.052Z,8.02
2023-03-06T19:26:17.641Z,8.03
2023-03-06T19:28:45.265Z,7.92
2023-03-06T19:31:19.656Z,7.97
2023-03-06T19:33:46.938Z,7.95
2023-03-06T19:36:14.122Z,7.90
2023-03-06T19:38:41.211Z,7.82
2023-03-06T19:41:13.301Z,7.79
2023-03-06T19:43:40.933Z,7.73
2023-03-06T19:46:12.588Z,7.65
2023-03-06T19:48:40.184Z,7.58
2023-03-06T19:51:07.025Z,7.57
2023-03-06T19:53:33.888Z,7.51
2023-03-06T19:56:11.802Z,7.40
2023-03-06T19:58:38.481Z,7.36
2023-03-06T20:01:06.572Z,7.24
2023-03-06T20:03:33.257Z,7.24
2023-03-06T20:06:00.231Z,7.24
2023-03-06T20:08:26.899Z,7.20
2023-03-06T20:10:53.563Z,7.20
2023-03-06T20:13:20.243Z,7.23
2023-03-06T20:15:46.959Z,7.17
2023-03-06T20:18:13.733Z,7.18
2023-03-06T20:20:40.386Z,7.17
2023-03-06T20:23:07.047Z,7.13
2023-03-06T20:25:35.397Z,7.18
2023-03-06T20:28:02.195Z,7.05
2023-03-06T20:30:37.521Z,7.00
2023-03-06T20:33:04.908Z,7.00
2023-03-06T20:35:31.619Z,6.96
2023-03-06T20:37:58.408Z,6.93
2023-03-06T20:40:25.131Z,6.93
2023-03-06T20:42:51.858Z,6.94
2023-03-06T20:45:18.557Z,6.91
2023-03-06T20:47:45.237Z,6.87
2023-03-06T20:50:11.907Z,6.84
2023-03-06T20:52:38.619Z,6.80
2023-03-06T20:55:05.798Z,6.73
2023-03-06T20:57:32.445Z,6.76
2023-03-06T20:59:59.146Z,6.69
2023-03-06T21:02:25.860Z,6.64
2023-03-06T21:04:52.559Z,6.62
2023-03-06T21:07:19.384Z,6.61
2023-03-06T21:09:46.078Z,6.59
2023-03-06T21:12:12.752Z,6.51
2023-03-06T21:14:39.436Z,6.52
2023-03-06T21:17:06.120Z,6.50
2023-03-06T21:19:32.791Z,6.47
2023-03-06T21:21:59.467Z,6.45
2023-03-06T21:24:26.183Z,6.38
2023-03-06T21:26:52.864Z,6.39
2023-03-06T21:29:19.510Z,6.38
2023-03-06T21:31:46.219Z,6.26
2023-03-06T21:34:13.083Z,6.21
2023-03-06T21:36:39.758Z,6.19
2023-03-06T21:39:06.536Z,6.12
2023-03-06T21:41:33.357Z,6.12
2023-03-06T21:44:01.446Z,6.13
2023-03-06T21:46:28.181Z,6.06
2023-03-06T21:48:54.858Z,5.98
2023-03-06T21:51:21.789Z,5.89
2023-03-06T21:53:48.459Z,5.85
2023-03-06T21:56:16.614Z,5.84
2023-03-06T21:58:43.421Z,5.86
2023-03-06T22:01:11.347Z,5.84
2023-03-06T22:03:38.104Z,5.80
2023-03-06T22:06:11.576Z,5.83
2023-03-06T22:08:38.362Z,5.82
2023-03-06T22:11:07.004Z,5.82
2023-03-06T22:13:33.704Z,5.77
2023-03-06T22:16:00.338Z,5.74
2023-03-06T22:18:26.993Z,5.70
2023-03-06T22:20:53.683Z,5.71
2023-03-06T22:23:20.355Z,5.63
2023-03-06T22:25:47.028Z,5.56
2023-03-06T22:28:13.693Z,5.46
2023-03-06T22:30:40.341Z,5.34
2023-03-06T22:33:06.981Z,5.34
2023-03-06T22:35:33.656Z,5.37
2023-03-06T22:38:00.318Z,5.40
2023-03-06T22:40:26.997Z,5.36
2023-03-06T22:42:53.653Z,5.34
2023-03-06T22:45:20.301Z,5.32
2023-03-06T22:47:46.980Z,5.34
2023-03-06T22:50:13.725Z,5.49
2023-03-06T22:52:40.386Z,5.50
2023-03-06T22:55:07.343Z,5.47
2023-03-06T22:57:34.037Z,5.46
2023-03-06T23:00:00.705Z,5.45
2023-03-06T23:02:32.721Z,5.44
2023-03-06T23:04:59.361Z,5.48
2023-03-06T23:07:26.022Z,5.56
2023-03-06T23:09:52.658Z,5.47
2023-03-06T23:12:19.343Z,5.45
2023-03-06T23:14:46.198Z,5.49
2023-03-06T23:17:12.913Z,5.49
2023-03-06T23:19:39.569Z,5.41
2023-03-06T23:22:06.244Z,5.43
2023-03-06T23:24:34.786Z,5.41
2023-03-06T23:27:03.156Z,5.38
2023-03-06T23:29:29.847Z,5.30
2023-03-06T23:31:56.499Z,5.31
2023-03-06T23:34:23.152Z,5.33
2023-03-06T23:36:49.814Z,5.30
2023-03-06T23:39:16.520Z,5.39
2023-03-06T23:41:43.188Z,5.42
2023-03-06T23:44:09.833Z,5.31
2023-03-06T23:46:36.614Z,5.27
2023-03-06T23:49:03.275Z,5.24
2023-03-06T23:51:29.906Z,5.19
2023-03-06T23:53:57.856Z,5.11
2023-03-06T23:56:25.229Z,5.06
2023-03-06T23:58:51.960Z,5.01
